Time;durP1;ratioP1;P1;durP2;ratioP2;P2;SDS_P1;SDS_P2;PMS_P1;PMS_P2;Temp;Humidity;BMP_temperature;BMP_pressure;BME280_temperature;BME280_humidity;BME280_pressure;Samples;Min_cycle;Max_cycle;Signal;HPM_P1;HPM_P2
2023/03/03 00:00:41;;;;;;;49.78;33.67;;;;;;;-0.61;100.00;102198.22;6219589;23;20414;-82
2023/03/03 00:03:09;;;;;;;49.20;33.22;;;;;;;-0.66;100.00;102185.91;6207843;23;20015;-82
2023/03/03 00:05:35;;;;;;;51.95;36.17;;;;;;;-0.69;100.00;102189.34;6209019;23;20009;-83
2023/03/03 00:08:01;;;;;;;48.15;33.15;;;;;;;-0.69;100.00;102189.34;6204934;23;20012;-83
2023/03/03 00:10:26;;;;;;;50.55;33.65;;;;;;;-0.74;100.00;102195.38;6207167;23;20008;-83
2023/03/03 00:12:52;;;;;;;51.95;34.45;;;;;;;-0.78;100.00;102186.59;6206276;23;20466;-83
2023/03/03 00:15:20;;;;;;;50.40;34.30;;;;;;;-0.79;100.00;102201.41;6208930;23;20005;-83
2023/03/03 00:17:46;;;;;;;53.92;35.38;;;;;;;-0.88;100.00;102190.78;6205000;23;19997;-83
2023/03/03 00:20:33;;;;;;;49.33;34.15;;;;;;;-0.86;100.00;102198.66;6180004;23;20553;-82
2023/03/03 00:23:35;;;;;;;50.90;34.63;;;;;;;-0.92;100.00;102193.28;6178706;23;20007;-82
2023/03/03 00:26:02;;;;;;;51.47;35.63;;;;;;;-1.03;100.00;102183.53;6177461;23;20031;-83
2023/03/03 00:28:44;;;;;;;54.63;36.50;;;;;;;-0.92;100.00;102209.88;6205775;23;20012;-84
2023/03/03 00:31:17;;;;;;;50.25;35.03;;;;;;;-1.03;100.00;102190.50;6207185;23;20050;-83
2023/03/03 00:33:49;;;;;;;56.20;37.83;;;;;;;-1.04;100.00;102199.19;6179587;23;20048;-83
2023/03/03 00:36:15;;;;;;;58.67;38.47;;;;;;;-0.93;100.00;102210.72;6181228;23;20386;-83
2023/03/03 00:38:41;;;;;;;59.15;38.38;;;;;;;-0.84;100.00;102218.72;6205126;23;19996;-83
2023/03/03 00:41:34;;;;;;;59.90;39.78;;;;;;;-0.73;100.00;102213.69;6206204;23;20324;-82
2023/03/03 00:43:59;;;;;;;57.10;38.55;;;;;;;-0.68;100.00;102219.00;6201764;23;20430;-83
2023/03/03 00:46:25;;;;;;;60.78;38.72;;;;;;;-0.70;100.00;102195.44;6205387;23;20005;-82
2023/03/03 00:48:51;;;;;;;58.83;37.30;;;;;;;-0.58;100.00;102216.56;6205876;23;20012;-83
2023/03/03 00:51:30;;;;;;;58.75;39.15;;;;;;;-0.58;100.00;102226.16;6206908;23;20024;-82
2023/03/03 00:53:57;;;;;;;60.25;37.42;;;;;;;-0.56;100.00;102229.66;6182249;23;20000;-82
2023/03/03 00:56:23;;;;;;;54.50;35.53;;;;;;;-0.57;100.00;102227.91;6206608;23;20008;-83
2023/03/03 00:58:49;;;;;;;54.78;36.53;;;;;;;-0.56;100.00;102224.44;6178025;23;20011;-82
2023/03/03 01:01:15;;;;;;;56.60;36.67;;;;;;;-0.58;100.00;102218.31;6205226;23;20477;-83
2023/03/03 01:03:41;;;;;;;56.13;37.30;;;;;;;-0.52;100.00;102221.00;6203711;23;20426;-82
2023/03/03 01:06:06;;;;;;;54.45;36.17;;;;;;;-0.56;100.00;102224.44;6205837;23;20015;-82
2023/03/03 01:08:32;;;;;;;58.00;37.90;;;;;;;-0.58;100.00;102231.38;6178919;23;20004;-83
2023/03/03 01:11:04;;;;;;;59.38;39.17;;;;;;;-0.61;100.00;102219.13;6203055;23;20008;-83
2023/03/03 01:13:31;;;;;;;55.55;36.45;;;;;;;-0.50;100.00;102237.63;6206662;23;20010;-82
2023/03/03 01:15:58;;;;;;;51.38;35.90;;;;;;;-0.52;100.00;102226.25;6205673;23;20004;-82
2023/03/03 01:18:24;;;;;;;57.05;37.22;;;;;;;-0.49;100.00;102228.03;6205519;23;20005;-82
2023/03/03 01:20:49;;;;;;;53.33;36.08;;;;;;;-0.48;100.00;102229.78;6205043;23;20437;-82
2023/03/03 01:23:14;;;;;;;57.13;37.38;;;;;;;-0.49;100.00;102231.53;6182478;23;20016;-82
2023/03/03 01:25:40;;;;;;;55.42;36.22;;;;;;;-0.55;100.00;102223.56;6209580;23;20076;-81
2023/03/03 01:28:05;;;;;;;54.13;36.55;;;;;;;-0.47;100.00;102239.41;6206836;23;20423;-82
2023/03/03 01:30:31;;;;;;;52.70;34.90;;;;;;;-0.57;100.00;102243.59;6180079;23;20035;-81
2023/03/03 01:32:57;;;;;;;50.08;33.70;;;;;;;-0.64;100.00;102234.75;6208508;23;20477;-82
2023/03/03 01:35:23;;;;;;;51.17;34.60;;;;;;;-0.65;100.00;102237.34;6179882;23;20439;-83
2023/03/03 01:37:48;;;;;;;49.20;34.13;;;;;;;-0.71;100.00;102245.97;6177647;23;20000;-83
2023/03/03 01:40:20;;;;;;;49.70;33.72;;;;;;;-0.72;100.00;102244.19;6181001;23;20446;-82
2023/03/03 01:42:46;;;;;;;49.75;34.03;;;;;;;-0.83;100.00;102223.09;6206346;23;20624;-84
2023/03/03 01:45:18;;;;;;;46.15;31.13;;;;;;;-0.78;100.00;102238.88;6207677;23;20011;-83
2023/03/03 01:47:50;;;;;;;51.13;34.20;;;;;;;-0.77;100.00;102245.84;6205836;23;20011;-83
2023/03/03 01:50:39;;;;;;;54.35;35.97;;;;;;;-0.80;100.00;102248.41;6205631;23;20505;-82
2023/03/03 01:53:08;;;;;;;52.38;34.78;;;;;;;-0.79;100.00;102253.69;6119259;23;20035;-82
2023/03/03 01:55:38;;;;;;;52.97;34.60;;;;;;;-0.77;100.00;102258.94;6204353;23;20012;-83
2023/03/03 01:58:11;;;;;;;50.83;33.42;;;;;;;-0.82;100.00;102242.28;6206159;23;20029;-83
2023/03/03 02:00:40;;;;;;;51.70;34.22;;;;;;;-0.81;100.00;102244.03;6205533;23;20536;-84
2023/03/03 02:03:05;;;;;;;53.42;35.28;;;;;;;-0.79;100.00;102240.63;6224128;23;20004;-81
2023/03/03 02:05:32;;;;;;;53.53;35.15;;;;;;;-0.81;100.00;102230.97;6223169;23;20622;-82
2023/03/03 02:07:58;;;;;;;51.35;34.33;;;;;;;-0.79;100.00;102237.13;6195316;23;20064;-83
2023/03/03 02:10:23;;;;;;;49.75;33.03;;;;;;;-0.79;100.00;102231.88;6181437;23;20024;-84
2023/03/03 02:12:51;;;;;;;53.03;35.05;;;;;;;-0.78;100.00;102228.41;6205797;23;20044;-83
2023/03/03 02:15:27;;;;;;;52.38;34.90;;;;;;;-0.82;100.00;102234.44;6209223;23;20034;-82
2023/03/03 02:17:55;;;;;;;50.90;34.55;;;;;;;-0.81;100.00;102239.69;6207659;23;20015;-83
2023/03/03 02:20:54;;;;;;;51.70;33.95;;;;;;;-0.75;100.00;102238.94;6210128;23;20055;-81
2023/03/03 02:23:48;;;;;;;54.40;34.70;;;;;;;-0.83;100.00;102228.34;6208317;23;20332;-82
2023/03/03 02:26:16;;;;;;;54.58;35.80;;;;;;;-0.85;100.00;102239.59;6206806;23;20057;-83
2023/03/03 02:28:42;;;;;;;52.13;33.30;;;;;;;-0.82;100.00;102239.66;6207383;23;20000;-83
2023/03/03 02:31:13;;;;;;;45.97;30.30;;;;;;;-0.86;100.00;102246.56;6206003;23;20020;-83
2023/03/03 02:33:43;;;;;;;45.83;31.15;;;;;;;-0.89;100.00;102243.00;6207525;23;20023;-83
2023/03/03 02:36:14;;;;;;;47.78;31.88;;;;;;;-0.84;100.00;102243.97;6205654;23;20074;-83
2023/03/03 02:38:48;;;;;;;47.22;32.33;;;;;;;-0.82;100.00;102243.16;6177613;23;20001;-83
2023/03/03 02:41:35;;;;;;;46.83;31.08;;;;;;;-0.80;100.00;102237.94;6207086;23;20008;-83
2023/03/03 02:44:07;;;;;;;47.35;30.58;;;;;;;-0.86;100.00;102245.69;6181185;23;20027;-83
2023/03/03 02:46:36;;;;;;;48.33;31.58;;;;;;;-0.92;100.00;102245.56;6204205;23;20040;-82
2023/03/03 02:49:04;;;;;;;47.60;31.65;;;;;;;-0.89;100.00;102248.25;6179356;23;20155;-82
2023/03/03 02:51:29;;;;;;;48.00;31.42;;;;;;;-0.91;100.00;102248.22;6178077;23;20011;-81
2023/03/03 02:53:54;;;;;;;47.67;31.15;;;;;;;-0.96;100.00;102233.28;6206506;23;20001;-83
2023/03/03 02:56:20;;;;;;;50.20;31.55;;;;;;;-0.96;100.00;102233.28;6203782;23;20004;-83
2023/03/03 02:58:45;;;;;;;47.03;30.98;;;;;;;-0.98;100.00;102237.63;6205603;23;20296;-83
2023/03/03 03:01:11;;;;;;;50.45;31.83;;;;;;;-0.95;100.00;102229.84;6180281;23;20147;-82
2023/03/03 03:03:36;;;;;;;51.47;31.63;;;;;;;-0.90;100.00;102243.88;6206012;23;20012;-79
2023/03/03 03:06:02;;;;;;;49.60;32.47;;;;;;;-0.91;100.00;102247.34;6179850;23;20028;-80
2023/03/03 03:08:27;;;;;;;49.10;31.98;;;;;;;-0.97;100.00;102232.41;6206947;23;20008;-82
2023/03/03 03:10:53;;;;;;;46.38;31.52;;;;;;;-0.91;100.00;102242.13;6205181;23;20004;-83
2023/03/03 03:13:18;;;;;;;48.38;31.00;;;;;;;-0.98;100.00;102240.22;6180194;23;20488;-82
2023/03/03 03:15:45;;;;;;;46.63;30.65;;;;;;;-0.96;100.00;102238.50;6205568;23;20108;-82
2023/03/03 03:18:10;;;;;;;46.67;31.58;;;;;;;-0.94;100.00;102247.28;6205985;23;20474;-82
2023/03/03 03:20:38;;;;;;;46.53;31.27;;;;;;;-0.90;100.00;102249.97;6205034;23;20043;-83
2023/03/03 03:23:04;;;;;;;46.10;30.65;;;;;;;-0.94;100.00;102245.53;6205182;23;20000;-82
2023/03/03 03:25:30;;;;;;;48.65;31.75;;;;;;;-0.92;100.00;102241.25;6204953;23;20066;-82
2023/03/03 03:27:55;;;;;;;46.55;30.88;;;;;;;-0.91;100.00;102244.72;6207710;23;20011;-82
2023/03/03 03:30:21;;;;;;;46.67;30.92;;;;;;;-0.87;100.00;102257.00;6205044;23;20031;-84
2023/03/03 03:32:46;;;;;;;46.00;30.60;;;;;;;-0.87;100.00;102244.81;6204168;23;20027;-83
2023/03/03 03:35:12;;;;;;;50.08;32.08;;;;;;;-0.78;100.00;102265.03;6206427;23;20594;-83
2023/03/03 03:37:38;;;;;;;48.65;32.30;;;;;;;-0.78;100.00;102262.41;6204064;23;20000;-82
2023/03/03 03:40:04;;;;;;;50.45;32.28;;;;;;;-0.89;100.00;102250.84;6182112;23;20015;-84
2023/03/03 03:42:30;;;;;;;46.45;31.50;;;;;;;-0.87;100.00;102255.28;6182181;23;20017;-82
2023/03/03 03:44:56;;;;;;;49.45;30.73;;;;;;;-0.81;100.00;102264.94;6211036;23;20442;-83
2023/03/03 03:47:21;;;;;;;48.30;31.50;;;;;;;-0.89;100.00;102253.47;6185568;23;20064;-81
2023/03/03 03:49:46;;;;;;;49.80;32.25;;;;;;;-0.82;100.00;102258.84;6213076;23;20383;-83
2023/03/03 03:52:11;;;;;;;51.53;31.48;;;;;;;-0.76;100.00;102264.16;6213042;23;20433;-82
2023/03/03 03:54:37;;;;;;;46.88;30.17;;;;;;;-0.72;100.00;102265.13;6212122;23;20068;-83
2023/03/03 03:57:02;;;;;;;47.22;30.10;;;;;;;-0.73;100.00;102263.38;6215624;23;20015;-82
2023/03/03 03:59:28;;;;;;;49.40;31.83;;;;;;;-0.79;100.00;102256.28;6217873;23;20004;-80
2023/03/03 04:01:53;;;;;;;54.63;33.90;;;;;;;-0.76;100.00;102266.78;6197564;23;20001;-81
2023/03/03 04:04:18;;;;;;;50.70;30.48;;;;;;;-0.79;100.00;102266.75;6194845;23;20023;-83
2023/03/03 04:06:44;;;;;;;53.38;32.75;;;;;;;-0.81;100.00;102257.97;6194042;23;20004;-82
2023/03/03 04:09:10;;;;;;;54.20;32.42;;;;;;;-0.88;100.00;102255.22;6224032;23;20008;-83
2023/03/03 04:11:35;;;;;;;51.63;33.05;;;;;;;-0.80;100.00;102266.69;6212327;23;20001;-83
2023/03/03 04:14:00;;;;;;;54.10;32.35;;;;;;;-0.91;100.00;102248.22;6211030;23;20008;-82
2023/03/03 04:16:26;;;;;;;46.38;29.35;;;;;;;-0.81;100.00;102270.19;6182147;23;20001;-82
2023/03/03 04:18:51;;;;;;;45.17;30.08;;;;;;;-0.84;100.00;102271.00;6209680;23;20171;-83
2023/03/03 04:21:17;;;;;;;51.70;33.20;;;;;;;-0.86;100.00;102267.47;6184644;23;20039;-81
2023/03/03 04:23:42;;;;;;;49.17;31.00;;;;;;;-0.90;100.00;102255.22;6184191;23;20008;-82
2023/03/03 04:26:09;;;;;;;49.30;31.25;;;;;;;-0.88;100.00;102266.59;6211714;23;20016;-83
2023/03/03 04:28:34;;;;;;;49.50;31.25;;;;;;;-0.84;100.00;102276.22;6210331;23;20072;-83
2023/03/03 04:31:00;;;;;;;54.35;31.88;;;;;;;-0.84;100.00;102272.72;6206471;23;20146;-84
2023/03/03 04:33:25;;;;;;;53.90;32.53;;;;;;;-0.84;100.00;102280.56;6180401;23;20007;-84
2023/03/03 04:35:50;;;;;;;49.58;31.50;;;;;;;-0.84;100.00;102276.22;6205674;23;20000;-81
2023/03/03 04:38:16;;;;;;;50.58;33.33;;;;;;;-0.88;100.00;102263.97;6205974;23;20004;-84
2023/03/03 04:40:42;;;;;;;49.95;31.35;;;;;;;-0.92;100.00;102261.25;6204230;23;20091;-83
2023/03/03 04:43:09;;;;;;;53.72;31.00;;;;;;;-0.92;100.00;102258.63;6180482;23;20008;-83
2023/03/03 04:45:34;;;;;;;53.95;31.58;;;;;;;-0.93;100.00;102269.94;6205906;23;20009;-83
2023/03/03 04:47:59;;;;;;;53.78;32.42;;;;;;;-0.93;100.00;102262.09;6206140;23;20465;-84
2023/03/03 04:50:25;;;;;;;53.95;34.10;;;;;;;-0.89;100.00;102277.00;6178796;23;20377;-82
2023/03/03 04:52:50;;;;;;;53.70;33.30;;;;;;;-0.89;100.00;102271.75;6204666;23;20067;-83
2023/03/03 04:55:15;;;;;;;52.78;32.67;;;;;;;-0.93;100.00;102265.59;6179988;23;20620;-83
2023/03/03 04:57:42;;;;;;;52.40;33.15;;;;;;;-0.86;100.00;102285.78;6204284;23;20083;-83
2023/03/03 05:00:09;;;;;;;51.47;31.73;;;;;;;-0.84;100.00;102286.69;6205502;23;20427;-83
2023/03/03 05:02:34;;;;;;;45.85;30.38;;;;;;;-0.89;100.00;102271.75;6204583;23;20004;-83
2023/03/03 05:04:59;;;;;;;48.65;30.15;;;;;;;-0.85;100.00;102284.03;6205582;23;20024;-82
2023/03/03 05:07:24;;;;;;;51.88;31.23;;;;;;;-0.84;100.00;102288.41;6178160;23;20021;-82
2023/03/03 05:09:50;;;;;;;51.08;30.95;;;;;;;-0.88;100.00;102277.03;6205590;23;20032;-83
2023/03/03 05:12:16;;;;;;;46.88;29.95;;;;;;;-0.97;100.00;102260.28;6206253;23;20008;-82
2023/03/03 05:14:41;;;;;;;51.63;30.15;;;;;;;-0.85;100.00;102281.44;6203430;23;20005;-83
2023/03/03 05:17:07;;;;;;;45.10;29.20;;;;;;;-0.88;100.00;102276.13;6205592;23;20009;-83
2023/03/03 05:19:33;;;;;;;50.63;30.75;;;;;;;-0.99;100.00;102262.00;6205405;23;20008;-83
2023/03/03 05:21:59;;;;;;;47.40;30.73;;;;;;;-0.91;100.00;102273.50;6206165;23;20011;-82
2023/03/03 05:24:24;;;;;;;45.92;30.05;;;;;;;-0.81;100.00;102280.63;6178624;23;20004;-83
2023/03/03 05:26:49;;;;;;;48.72;29.65;;;;;;;-0.90;100.00;102280.47;6205659;23;20329;-83
2023/03/03 05:29:15;;;;;;;47.95;28.95;;;;;;;-0.90;100.00;102288.31;6206710;23;20479;-83
2023/03/03 05:31:40;;;;;;;47.47;28.80;;;;;;;-0.82;100.00;102299.78;6178428;23;20434;-83
2023/03/03 05:34:06;;;;;;;45.13;27.95;;;;;;;-0.81;100.00;102296.31;6203533;23;20393;-83
2023/03/03 05:36:31;;;;;;;44.05;27.50;;;;;;;-0.80;100.00;102292.84;6202181;23;20019;-82
2023/03/03 05:38:57;;;;;;;47.38;28.65;;;;;;;-0.80;100.00;102295.47;6177892;23;20004;-83
2023/03/03 05:41:22;;;;;;;45.95;28.60;;;;;;;-0.78;100.00;102292.03;6205131;23;20095;-82
2023/03/03 05:43:47;;;;;;;46.35;27.00;;;;;;;-0.81;100.00;102289.34;6178425;23;20300;-82
2023/03/03 05:46:13;;;;;;;48.50;27.92;;;;;;;-0.77;100.00;102299.03;6204725;23;20009;-82
2023/03/03 05:48:38;;;;;;;48.22;27.42;;;;;;;-0.73;100.00;102299.97;6177868;23;20004;-84
2023/03/03 05:51:04;;;;;;;49.05;28.20;;;;;;;-0.77;100.00;102288.56;6178882;23;20607;-83
2023/03/03 05:53:29;;;;;;;50.85;28.17;;;;;;;-0.72;100.00;102293.88;6204195;23;20008;-83
2023/03/03 05:55:55;;;;;;;49.08;27.98;;;;;;;-0.73;100.00;102294.72;6178352;23;20175;-82
2023/03/03 05:58:20;;;;;;;50.22;30.00;;;;;;;-0.77;100.00;102299.03;6204297;23;20001;-83
2023/03/03 06:00:46;;;;;;;46.85;27.90;;;;;;;-0.74;100.00;102298.22;6178134;23;20142;-84
2023/03/03 06:03:12;;;;;;;50.05;28.85;;;;;;;-0.76;100.00;102292.94;6180035;23;20008;-83
2023/03/03 06:05:37;;;;;;;49.53;28.60;;;;;;;-0.85;100.00;102290.16;6208207;23;20058;-82
2023/03/03 06:08:02;;;;;;;49.08;29.48;;;;;;;-0.71;100.00;102308.72;6196864;23;20015;-82
2023/03/03 06:10:28;;;;;;;51.63;29.55;;;;;;;-0.73;100.00;102309.53;6198565;23;20256;-83
2023/03/03 06:12:54;;;;;;;51.65;29.58;;;;;;;-0.69;100.00;102311.38;6214326;23;20401;-83
2023/03/03 06:15:20;;;;;;;49.83;28.65;;;;;;;-0.76;100.00;102300.78;6204126;23;20011;-82
2023/03/03 06:17:46;;;;;;;49.28;28.70;;;;;;;-0.76;100.00;102303.38;6182998;23;20020;-82
2023/03/03 06:20:11;;;;;;;47.30;27.40;;;;;;;-0.67;100.00;102309.66;6205516;23;20228;-83
2023/03/03 06:22:36;;;;;;;53.72;29.88;;;;;;;-0.70;100.00;102301.78;6184874;23;20024;-82
2023/03/03 06:25:02;;;;;;;48.58;28.10;;;;;;;-0.65;100.00;102319.28;6184755;23;20013;-82
2023/03/03 06:27:28;;;;;;;54.05;29.33;;;;;;;-0.60;100.00;102319.38;6211628;23;20497;-83
2023/03/03 06:29:53;;;;;;;49.80;29.05;;;;;;;-0.60;100.00;102322.00;6209539;23;20565;-83
2023/03/03 06:32:18;;;;;;;50.53;29.10;;;;;;;-0.64;100.00;102305.34;6182122;23;20035;-82
2023/03/03 06:34:44;;;;;;;48.55;28.80;;;;;;;-0.60;100.00;102314.16;6205924;23;20489;-82
2023/03/03 06:37:09;;;;;;;49.15;28.23;;;;;;;-0.56;100.00;102316.84;6208352;23;20331;-82
2023/03/03 06:39:35;;;;;;;48.63;28.52;;;;;;;-0.53;100.00;102329.97;6179165;23;20008;-82
2023/03/03 06:42:00;;;;;;;50.00;29.73;;;;;;;-0.49;100.00;102335.28;6180330;23;20035;-82
2023/03/03 06:44:25;;;;;;;49.33;26.95;;;;;;;-0.56;100.00;102323.81;6206158;23;20005;-83
2023/03/03 06:46:52;;;;;;;52.83;29.85;;;;;;;-0.51;100.00;102338.72;6179424;23;20032;-82
2023/03/03 06:49:17;;;;;;;51.25;28.23;;;;;;;-0.43;100.00;102343.22;6179404;23;20012;-82
2023/03/03 06:51:45;;;;;;;52.75;29.60;;;;;;;-0.49;100.00;102343.13;6177888;23;20026;-81
2023/03/03 06:54:26;;;;;;;48.45;28.20;;;;;;;-0.39;100.00;102358.13;6205858;23;20036;-81
2023/03/03 06:56:57;;;;;;;50.90;29.55;;;;;;;-0.39;100.00;102352.91;6206283;23;20063;-82
2023/03/03 06:59:22;;;;;;;51.78;28.65;;;;;;;-0.43;100.00;102351.94;6206337;23;20023;-81
2023/03/03 07:01:49;;;;;;;51.55;29.23;;;;;;;-0.33;100.00;102360.88;6205204;23;20501;-83
2023/03/03 07:04:32;;;;;;;53.40;29.23;;;;;;;-0.33;100.00;102366.97;6206596;23;20100;-82
2023/03/03 07:07:06;;;;;;;47.90;26.58;;;;;;;-0.30;100.00;102367.00;6206007;23;20008;-82
2023/03/03 07:09:31;;;;;;;46.35;26.95;;;;;;;-0.25;100.00;102369.75;6203536;23;20009;-83
2023/03/03 07:12:05;;;;;;;40.45;24.88;;;;;;;-0.29;100.00;102362.69;6180562;23;20012;-83
2023/03/03 07:14:31;;;;;;;42.08;25.50;;;;;;;-0.24;100.00;102368.88;6205223;23;20027;-84
2023/03/03 07:17:00;;;;;;;39.63;24.73;;;;;;;-0.18;100.00;102371.59;6180086;23;20027;-83
2023/03/03 07:19:33;;;;;;;41.70;25.15;;;;;;;-0.18;100.00;102373.34;6180862;23;20001;-83
2023/03/03 07:22:05;;;;;;;43.17;25.92;;;;;;;-0.12;100.00;102373.47;6183117;23;20311;-83
2023/03/03 07:24:31;;;;;;;45.13;26.02;;;;;;;-0.11;100.00;102370.84;6183259;23;20005;-81
2023/03/03 07:27:19;;;;;;;43.90;25.83;;;;;;;-0.04;100.00;102375.34;6181775;23;20401;-82
2023/03/03 07:29:50;;;;;;;43.10;25.83;;;;;;;-0.03;100.00;102371.88;6210078;23;20596;-83
2023/03/03 07:32:26;;;;;;;41.35;25.38;;;;;;;0.04;100.00;102372.84;6210784;23;20005;-83
2023/03/03 07:34:54;;;;;;;41.42;25.45;;;;;;;0.04;100.00;102377.19;6207412;23;20012;-83
2023/03/03 07:37:37;;;;;;;40.03;23.95;;;;;;;0.07;100.00;102377.25;6178480;23;20028;-82
2023/03/03 07:40:36;;;;;;;42.55;25.33;;;;;;;0.15;100.00;102386.13;6206213;23;20008;-83
2023/03/03 07:43:37;;;;;;;43.55;26.02;;;;;;;0.16;100.00;102391.38;6205359;23;20095;-84
2023/03/03 07:46:21;;;;;;;41.47;26.08;;;;;;;0.20;100.00;102390.56;6207127;23;20043;-83
2023/03/03 07:48:47;;;;;;;41.35;24.85;;;;;;;0.23;100.00;102393.25;6208407;23;20001;-83
2023/03/03 07:51:25;;;;;;;42.65;26.77;;;;;;;0.22;100.00;102380.13;6181962;23;20123;-84
2023/03/03 07:53:52;;;;;;;41.42;25.95;;;;;;;0.28;100.00;102389.81;6180000;23;20005;-82
2023/03/03 07:56:26;;;;;;;36.83;24.10;;;;;;;0.32;100.00;102403.00;6182724;23;20068;-83
2023/03/03 07:58:52;;;;;;;42.65;25.88;;;;;;;0.36;100.00;102403.91;6210765;23;19997;-83
2023/03/03 08:01:23;;;;;;;41.13;25.75;;;;;;;0.34;100.00;102395.19;6182697;23;20457;-83
2023/03/03 08:03:50;;;;;;;38.47;24.02;;;;;;;0.42;100.00;102415.41;6210324;23;20012;-83
2023/03/03 08:06:59;;;;;;;42.17;25.25;;;;;;;0.46;100.00;102411.97;6191952;23;20016;-83
2023/03/03 08:09:30;;;;;;;41.00;25.17;;;;;;;0.49;100.00;102412.00;6203959;23;20008;-84
2023/03/03 08:12:09;;;;;;;40.00;25.50;;;;;;;0.52;100.00;102410.28;6197451;23;20423;-82
2023/03/03 08:14:37;;;;;;;43.08;25.17;;;;;;;0.53;100.00;102418.16;6184564;23;20000;-83
2023/03/03 08:17:23;;;;;;;41.10;25.70;;;;;;;0.56;100.00;102401.63;6186836;23;20038;-83
2023/03/03 08:19:51;;;;;;;40.03;25.73;;;;;;;0.63;100.00;102422.72;6188496;23;20036;-83
2023/03/03 08:22:22;;;;;;;38.65;23.48;;;;;;;0.59;100.00;102414.78;6186752;23;20001;-83
2023/03/03 08:24:48;;;;;;;37.78;24.40;;;;;;;0.67;100.00;102426.22;6214164;23;20027;-83
2023/03/03 08:27:13;;;;;;;38.90;24.85;;;;;;;0.76;100.00;102423.78;6214610;23;20047;-83
2023/03/03 08:29:38;;;;;;;40.35;24.60;;;;;;;0.80;100.00;102419.47;6188265;23;20793;-84
2023/03/03 08:32:04;;;;;;;41.00;24.85;;;;;;;0.86;100.00;102420.41;6186991;23;20091;-83
2023/03/03 08:34:29;;;;;;;37.20;24.00;;;;;;;0.86;100.00;102417.78;6208986;23;20008;-82
2023/03/03 08:36:57;;;;;;;35.55;23.83;;;;;;;0.81;100.00;102409.00;6184146;23;20005;-82
2023/03/03 08:39:22;;;;;;;37.92;23.08;;;;;;;0.91;100.00;102425.72;6214802;23;20620;-85
2023/03/03 08:41:48;;;;;;;37.72;23.75;;;;;;;0.92;100.00;102428.38;6187611;23;20031;-83
2023/03/03 08:44:13;;;;;;;40.78;24.75;;;;;;;0.93;100.00;102431.88;6188844;23;20031;-85
2023/03/03 08:46:39;;;;;;;38.42;24.52;;;;;;;1.00;100.00;102438.94;6188389;23;20550;-85
2023/03/03 08:49:04;;;;;;;36.88;24.83;;;;;;;0.99;100.00;102434.56;6217015;23;20004;-84
2023/03/03 08:51:32;;;;;;;42.30;25.42;;;;;;;1.04;100.00;102437.25;6217786;23;20005;-83
2023/03/03 08:53:57;;;;;;;37.28;24.23;;;;;;;1.01;100.00;102432.88;6216587;23;20009;-84
2023/03/03 08:56:23;;;;;;;38.80;25.13;;;;;;;1.02;100.00;102439.88;6189688;23;20096;-83
2023/03/03 08:58:48;;;;;;;38.80;24.40;;;;;;;1.09;100.00;102446.97;6190295;23;20012;-85
2023/03/03 09:01:15;;;;;;;37.55;24.08;;;;;;;1.13;100.00;102453.09;6220028;23;20000;-83
2023/03/03 09:03:41;;;;;;;38.20;24.13;;;;;;;1.10;100.00;102448.72;6213744;23;20012;-85
2023/03/03 09:06:07;;;;;;;38.17;24.80;;;;;;;1.12;100.00;102448.72;6214869;23;20012;-82
2023/03/03 09:08:36;;;;;;;38.55;23.83;;;;;;;1.18;100.00;102457.56;6211415;23;20607;-84
2023/03/03 09:11:02;;;;;;;39.40;24.83;;;;;;;1.18;100.00;102461.94;6209242;23;20005;-81
2023/03/03 09:13:29;;;;;;;37.33;22.70;;;;;;;1.22;100.00;102461.13;6207137;23;20016;-81
2023/03/03 09:15:57;;;;;;;38.05;23.92;;;;;;;1.30;100.00;102462.13;6207841;23;20078;-81
2023/03/03 09:18:43;;;;;;;34.58;22.08;;;;;;;1.30;100.00;102440.25;6187322;23;20004;-85
2023/03/03 09:21:22;;;;;;;36.75;23.20;;;;;;;1.41;100.00;102465.75;6214586;23;20326;-85
2023/03/03 09:23:57;;;;;;;33.55;21.48;;;;;;;1.36;100.00;102446.44;6185361;23;20493;-84
2023/03/03 09:26:26;;;;;;;31.02;21.45;;;;;;;1.51;100.00;102460.63;6214850;23;20085;-85
2023/03/03 09:29:13;;;;;;;33.72;21.30;;;;;;;1.62;100.00;102459.88;6213637;23;20091;-84
2023/03/03 09:31:47;;;;;;;29.98;20.30;;;;;;;1.65;100.00;102459.03;6213428;23;20005;-83
2023/03/03 09:34:22;;;;;;;28.10;19.67;;;;;;;1.63;100.00;102459.03;6216841;23;20012;-83
2023/03/03 09:36:48;;;;;;;30.73;19.98;;;;;;;1.65;99.73;102465.16;6217692;23;20008;-84
2023/03/03 09:39:23;;;;;;;28.08;18.52;;;;;;;1.69;99.32;102455.59;6213971;23;20005;-84
2023/03/03 09:42:06;;;;;;;29.27;18.75;;;;;;;1.92;99.06;102468.94;6211848;23;20047;-83
2023/03/03 09:44:48;;;;;;;27.42;17.90;;;;;;;2.02;97.89;102469.97;6217426;23;20434;-84
2023/03/03 09:47:32;;;;;;;26.17;18.23;;;;;;;2.11;96.69;102462.16;6213432;23;20054;-83
2023/03/03 09:50:35;;;;;;;25.95;17.52;;;;;;;2.27;97.06;102466.69;6207170;23;20032;-84
2023/03/03 09:53:41;;;;;;;26.67;17.95;;;;;;;2.48;95.98;102469.53;6208344;23;20007;-81
2023/03/03 09:56:29;;;;;;;28.95;18.98;;;;;;;2.49;94.37;102467.75;6209602;23;20028;-82
2023/03/03 09:59:13;;;;;;;26.67;18.20;;;;;;;2.70;93.76;102462.69;6182000;23;20254;-84
2023/03/03 10:02:15;;;;;;;27.08;18.77;;;;;;;3.11;93.68;102471.72;6182429;23;20448;-83
2023/03/03 10:04:53;;;;;;;25.83;17.33;;;;;;;3.26;91.59;102474.47;6228730;23;20027;-82
2023/03/03 10:07:54;;;;;;;26.80;18.70;;;;;;;3.42;90.79;102471.00;6228406;23;20009;-84
2023/03/03 10:11:07;;;;;;;25.42;17.38;;;;;;;3.49;90.63;102469.28;6215586;23;20093;-83
2023/03/03 10:13:56;;;;;;;26.83;17.58;;;;;;;3.42;90.12;102467.50;6155227;23;20550;-83
2023/03/03 10:16:46;;;;;;;28.35;19.00;;;;;;;3.48;89.92;102484.22;6149708;23;20009;-84
2023/03/03 10:19:36;;;;;;;30.73;20.50;;;;;;;3.19;91.04;102483.19;6121621;23;20436;-83
2023/03/03 10:22:16;;;;;;;30.92;20.60;;;;;;;2.93;90.69;102485.66;6122056;23;20013;-83
2023/03/03 10:25:03;;;;;;;28.88;19.55;;;;;;;2.84;91.89;102475.03;6150861;23;19993;-84
2023/03/03 10:28:09;;;;;;;28.20;19.15;;;;;;;2.93;92.36;102485.66;6122028;23;20025;-84
2023/03/03 10:30:48;;;;;;;28.23;19.42;;;;;;;2.75;91.48;102486.38;6131334;23;20013;-83
2023/03/03 10:33:53;;;;;;;28.02;19.05;;;;;;;2.82;92.86;102485.56;6147532;23;20005;-83
2023/03/03 10:36:18;;;;;;;25.42;17.27;;;;;;;2.80;90.69;102486.41;6148394;23;20084;-84
2023/03/03 10:39:00;;;;;;;26.25;17.60;;;;;;;2.88;90.81;102477.69;6122588;23;20462;-84
2023/03/03 10:41:39;;;;;;;26.15;17.35;;;;;;;3.00;89.91;102477.78;6146256;23;20009;-84
2023/03/03 10:44:24;;;;;;;22.65;15.45;;;;;;;2.95;88.05;102474.25;6149325;23;20013;-83
2023/03/03 10:47:01;;;;;;;22.23;14.20;;;;;;;3.13;89.35;102491.00;6187921;23;20001;-81
2023/03/03 10:49:45;;;;;;;21.88;15.70;;;;;;;3.32;88.43;102487.63;6211518;23;20008;-83
2023/03/03 10:52:18;;;;;;;21.50;14.77;;;;;;;3.59;86.86;102483.34;6218767;23;20009;-82
2023/03/03 10:54:43;;;;;;;21.88;15.07;;;;;;;4.09;84.94;102480.00;6185688;23;20001;-83
2023/03/03 10:57:27;;;;;;;22.73;15.25;;;;;;;4.20;83.60;102473.00;6215159;23;20450;-84
2023/03/03 11:00:08;;;;;;;21.20;14.75;;;;;;;4.35;82.91;102472.16;6212065;23;20047;-84
2023/03/03 11:02:52;;;;;;;20.80;14.75;;;;;;;4.60;81.57;102479.22;6181066;23;20017;-85
2023/03/03 11:05:44;;;;;;;20.73;14.80;;;;;;;6.29;75.83;102470.72;6212563;23;20021;-84
2023/03/03 11:08:25;;;;;;;21.85;14.23;;;;;;;6.46;72.41;102477.63;6161800;23;20031;-84
2023/03/03 11:11:04;;;;;;;20.40;14.45;;;;;;;5.70;72.79;102463.09;6210476;23;20071;-82
2023/03/03 11:14:09;;;;;;;18.13;13.90;;;;;;;5.22;75.12;102472.06;6181920;23;20031;-84
2023/03/03 11:16:53;;;;;;;17.95;13.70;;;;;;;4.85;77.56;102477.44;6207844;23;20019;-84
2023/03/03 11:19:46;;;;;;;19.60;13.75;;;;;;;6.32;75.25;102463.63;6209012;23;20007;-84
2023/03/03 11:22:32;;;;;;;18.13;13.55;;;;;;;7.72;69.37;102455.13;6206321;23;20103;-89